sensor_id;sensor_type;location;lat;lon;timestamp;P1;durP1;ratioP1;P2;durP2;ratioP2
64816;SDS011;53289;45.602;11.904;2023-02-01T00:02:00;108.75;;;50.45;;
64816;SDS011;53289;45.602;11.904;2023-02-01T00:04:26;110.60;;;52.97;;
64816;SDS011;53289;45.602;11.904;2023-02-01T00:06:53;94.75;;;44.05;;
64816;SDS011;53289;45.602;11.904;2023-02-01T00:09:19;108.50;;;51.42;;
64816;SDS011;53289;45.602;11.904;2023-02-01T00:11:44;113.63;;;50.83;;
64816;SDS011;53289;45.602;11.904;2023-02-01T00:14:10;110.55;;;52.30;;
64816;SDS011;53289;45.602;11.904;2023-02-01T00:16:37;109.90;;;51.70;;
64816;SDS011;53289;45.602;11.904;2023-02-01T00:19:04;105.30;;;51.88;;
64816;SDS011;53289;45.602;11.904;2023-02-01T00:21:35;95.13;;;46.03;;
64816;SDS011;53289;45.602;11.904;2023-02-01T00:24:01;81.75;;;39.28;;
64816;SDS011;53289;45.602;11.904;2023-02-01T00:29:00;99.82;;;46.17;;
64816;SDS011;53289;45.602;11.904;2023-02-01T00:31:27;108.13;;;51.47;;
64816;SDS011;53289;45.602;11.904;2023-02-01T00:33:53;102.53;;;49.22;;
64816;SDS011;53289;45.602;11.904;2023-02-01T00:36:19;105.43;;;51.40;;
64816;SDS011;53289;45.602;11.904;2023-02-01T00:38:45;114.78;;;53.25;;
64816;SDS011;53289;45.602;11.904;2023-02-01T00:43:38;97.93;;;44.78;;
64816;SDS011;53289;45.602;11.904;2023-02-01T00:46:04;113.90;;;52.00;;
64816;SDS011;53289;45.602;11.904;2023-02-01T00:48:31;105.95;;;50.08;;
64816;SDS011;53289;45.602;11.904;2023-02-01T00:51:09;102.60;;;49.65;;
64816;SDS011;53289;45.602;11.904;2023-02-01T00:53:40;106.00;;;49.40;;
64816;SDS011;53289;45.602;11.904;2023-02-01T00:56:07;99.78;;;48.85;;
64816;SDS011;53289;45.602;11.904;2023-02-01T00:58:33;102.60;;;48.47;;
64816;SDS011;53289;45.602;11.904;2023-02-01T01:03:29;90.95;;;41.35;;
64816;SDS011;53289;45.602;11.904;2023-02-01T01:05:58;92.47;;;42.20;;
64816;SDS011;53289;45.602;11.904;2023-02-01T01:08:25;94.85;;;43.60;;
64816;SDS011;53289;45.602;11.904;2023-02-01T01:10:52;106.80;;;50.33;;
64816;SDS011;53289;45.602;11.904;2023-02-01T01:13:18;96.53;;;46.97;;
64816;SDS011;53289;45.602;11.904;2023-02-01T01:15:44;105.65;;;47.15;;
64816;SDS011;53289;45.602;11.904;2023-02-01T01:18:10;98.88;;;47.70;;
64816;SDS011;53289;45.602;11.904;2023-02-01T01:20:38;103.00;;;47.30;;
64816;SDS011;53289;45.602;11.904;2023-02-01T01:23:06;103.07;;;46.42;;
64816;SDS011;53289;45.602;11.904;2023-02-01T01:25:37;102.65;;;48.45;;
64816;SDS011;53289;45.602;11.904;2023-02-01T01:28:04;87.57;;;41.83;;
64816;SDS011;53289;45.602;11.904;2023-02-01T01:30:31;96.35;;;43.65;;
64816;SDS011;53289;45.602;11.904;2023-02-01T01:32:57;88.75;;;38.63;;
64816;SDS011;53289;45.602;11.904;2023-02-01T01:35:22;82.75;;;39.67;;
64816;SDS011;53289;45.602;11.904;2023-02-01T01:37:48;93.50;;;44.00;;
64816;SDS011;53289;45.602;11.904;2023-02-01T01:40:14;68.93;;;34.42;;
64816;SDS011;53289;45.602;11.904;2023-02-01T01:42:41;88.97;;;43.22;;
64816;SDS011;53289;45.602;11.904;2023-02-01T01:45:22;96.30;;;45.40;;
64816;SDS011;53289;45.602;11.904;2023-02-01T01:47:52;98.35;;;46.92;;
64816;SDS011;53289;45.602;11.904;2023-02-01T01:50:33;95.18;;;43.47;;
64816;SDS011;53289;45.602;11.904;2023-02-01T01:53:04;97.28;;;44.92;;
64816;SDS011;53289;45.602;11.904;2023-02-01T01:55:34;86.40;;;42.75;;
64816;SDS011;53289;45.602;11.904;2023-02-01T01:58:04;91.97;;;44.80;;
64816;SDS011;53289;45.602;11.904;2023-02-01T02:00:35;92.28;;;42.17;;
64816;SDS011;53289;45.602;11.904;2023-02-01T02:05:42;89.05;;;42.15;;
64816;SDS011;53289;45.602;11.904;2023-02-01T02:08:09;90.43;;;41.55;;
64816;SDS011;53289;45.602;11.904;2023-02-01T02:10:36;88.05;;;39.47;;
64816;SDS011;53289;45.602;11.904;2023-02-01T02:13:21;89.03;;;41.58;;
64816;SDS011;53289;45.602;11.904;2023-02-01T02:18:46;82.15;;;39.22;;
64816;SDS011;53289;45.602;11.904;2023-02-01T02:30:00;86.50;;;37.75;;
64816;SDS011;53289;45.602;11.904;2023-02-01T02:35:25;82.25;;;36.88;;
64816;SDS011;53289;45.602;11.904;2023-02-01T02:38:00;78.57;;;36.38;;
64816;SDS011;53289;45.602;11.904;2023-02-01T02:40:31;78.97;;;34.88;;
64816;SDS011;53289;45.602;11.904;2023-02-01T02:43:06;75.20;;;34.60;;
64816;SDS011;53289;45.602;11.904;2023-02-01T02:51:50;71.93;;;31.88;;
64816;SDS011;53289;45.602;11.904;2023-02-01T02:54:57;66.07;;;29.23;;
64816;SDS011;53289;45.602;11.904;2023-02-01T02:57:28;72.85;;;32.38;;
64816;SDS011;53289;45.602;11.904;2023-02-01T03:00:17;63.08;;;29.20;;
64816;SDS011;53289;45.602;11.904;2023-02-01T03:03:03;63.53;;;32.15;;
64816;SDS011;53289;45.602;11.904;2023-02-01T03:05:49;70.25;;;32.38;;
64816;SDS011;53289;45.602;11.904;2023-02-01T03:08:16;56.58;;;26.35;;
64816;SDS011;53289;45.602;11.904;2023-02-01T03:11:04;56.10;;;25.15;;
64816;SDS011;53289;45.602;11.904;2023-02-01T03:13:37;64.65;;;28.88;;
64816;SDS011;53289;45.602;11.904;2023-02-01T03:16:10;61.80;;;27.42;;
64816;SDS011;53289;45.602;11.904;2023-02-01T03:23:47;56.40;;;27.02;;
64816;SDS011;53289;45.602;11.904;2023-02-01T03:26:16;58.72;;;29.65;;
64816;SDS011;53289;45.602;11.904;2023-02-01T03:29:07;65.47;;;29.92;;
64816;SDS011;53289;45.602;11.904;2023-02-01T03:31:53;68.60;;;31.52;;
64816;SDS011;53289;45.602;11.904;2023-02-01T03:34:19;69.45;;;30.42;;
64816;SDS011;53289;45.602;11.904;2023-02-01T03:36:52;53.65;;;27.10;;
64816;SDS011;53289;45.602;11.904;2023-02-01T03:39:26;52.40;;;24.85;;
64816;SDS011;53289;45.602;11.904;2023-02-01T03:42:03;60.13;;;25.92;;
64816;SDS011;53289;45.602;11.904;2023-02-01T03:44:57;63.67;;;30.38;;
64816;SDS011;53289;45.602;11.904;2023-02-01T03:47:26;42.75;;;18.95;;
64816;SDS011;53289;45.602;11.904;2023-02-01T03:49:57;66.15;;;29.25;;
64816;SDS011;53289;45.602;11.904;2023-02-01T03:52:32;66.70;;;30.63;;
64816;SDS011;53289;45.602;11.904;2023-02-01T03:55:04;69.18;;;31.88;;
64816;SDS011;53289;45.602;11.904;2023-02-01T03:57:32;59.90;;;25.15;;
64816;SDS011;53289;45.602;11.904;2023-02-01T04:00:09;45.58;;;21.75;;
64816;SDS011;53289;45.602;11.904;2023-02-01T04:02:47;61.80;;;26.67;;
64816;SDS011;53289;45.602;11.904;2023-02-01T04:05:13;67.95;;;30.77;;
64816;SDS011;53289;45.602;11.904;2023-02-01T04:07:39;57.75;;;23.92;;
64816;SDS011;53289;45.602;11.904;2023-02-01T04:10:05;71.53;;;31.38;;
64816;SDS011;53289;45.602;11.904;2023-02-01T04:12:32;71.95;;;32.65;;
64816;SDS011;53289;45.602;11.904;2023-02-01T04:14:58;67.55;;;32.20;;
64816;SDS011;53289;45.602;11.904;2023-02-01T04:17:24;71.78;;;32.45;;
64816;SDS011;53289;45.602;11.904;2023-02-01T04:19:50;72.03;;;32.88;;
64816;SDS011;53289;45.602;11.904;2023-02-01T04:22:16;65.28;;;29.48;;
64816;SDS011;53289;45.602;11.904;2023-02-01T04:24:41;68.40;;;29.60;;
64816;SDS011;53289;45.602;11.904;2023-02-01T04:27:07;66.55;;;29.30;;
64816;SDS011;53289;45.602;11.904;2023-02-01T04:29:33;69.53;;;30.75;;
64816;SDS011;53289;45.602;11.904;2023-02-01T04:31:59;63.65;;;28.25;;
64816;SDS011;53289;45.602;11.904;2023-02-01T04:34:25;68.60;;;30.35;;
64816;SDS011;53289;45.602;11.904;2023-02-01T04:36:51;51.08;;;23.73;;
64816;SDS011;53289;45.602;11.904;2023-02-01T04:39:17;68.65;;;27.95;;
64816;SDS011;53289;45.602;11.904;2023-02-01T04:41:43;46.72;;;20.38;;
64816;SDS011;53289;45.602;11.904;2023-02-01T04:44:16;41.30;;;19.88;;
64816;SDS011;53289;45.602;11.904;2023-02-01T04:46:43;63.42;;;26.38;;
64816;SDS011;53289;45.602;11.904;2023-02-01T04:49:11;58.40;;;25.60;;
64816;SDS011;53289;45.602;11.904;2023-02-01T04:51:37;74.20;;;31.20;;
64816;SDS011;53289;45.602;11.904;2023-02-01T04:54:04;67.60;;;29.27;;
64816;SDS011;53289;45.602;11.904;2023-02-01T04:56:30;60.67;;;25.23;;
64816;SDS011;53289;45.602;11.904;2023-02-01T04:58:56;53.25;;;23.48;;
64816;SDS011;53289;45.602;11.904;2023-02-01T05:01:22;63.45;;;29.00;;
64816;SDS011;53289;45.602;11.904;2023-02-01T05:03:50;64.53;;;29.98;;
64816;SDS011;53289;45.602;11.904;2023-02-01T05:06:16;56.05;;;27.38;;
64816;SDS011;53289;45.602;11.904;2023-02-01T05:08:42;66.50;;;30.73;;
64816;SDS011;53289;45.602;11.904;2023-02-01T05:11:08;57.75;;;26.48;;
64816;SDS011;53289;45.602;11.904;2023-02-01T05:13:57;69.60;;;31.33;;
64816;SDS011;53289;45.602;11.904;2023-02-01T05:16:24;72.28;;;30.55;;
64816;SDS011;53289;45.602;11.904;2023-02-01T05:18:50;60.47;;;27.08;;
64816;SDS011;53289;45.602;11.904;2023-02-01T05:21:16;64.13;;;28.67;;
64816;SDS011;53289;45.602;11.904;2023-02-01T05:23:43;73.40;;;31.45;;
64816;SDS011;53289;45.602;11.904;2023-02-01T05:26:27;71.72;;;31.90;;
64816;SDS011;53289;45.602;11.904;2023-02-01T05:28:53;73.55;;;32.08;;
64816;SDS011;53289;45.602;11.904;2023-02-01T05:31:19;69.13;;;29.13;;
64816;SDS011;53289;45.602;11.904;2023-02-01T05:33:45;65.13;;;30.65;;
64816;SDS011;53289;45.602;11.904;2023-02-01T05:36:11;59.20;;;27.38;;
64816;SDS011;53289;45.602;11.904;2023-02-01T05:38:37;76.57;;;32.38;;
64816;SDS011;53289;45.602;11.904;2023-02-01T05:41:03;71.82;;;32.05;;
64816;SDS011;53289;45.602;11.904;2023-02-01T05:43:29;65.13;;;30.45;;
64816;SDS011;53289;45.602;11.904;2023-02-01T05:45:55;77.80;;;31.48;;
64816;SDS011;53289;45.602;11.904;2023-02-01T05:48:21;71.07;;;32.28;;
64816;SDS011;53289;45.602;11.904;2023-02-01T05:50:47;69.38;;;31.30;;
64816;SDS011;53289;45.602;11.904;2023-02-01T05:53:13;68.45;;;31.63;;
64816;SDS011;53289;45.602;11.904;2023-02-01T05:55:39;68.13;;;32.17;;
64816;SDS011;53289;45.602;11.904;2023-02-01T05:58:05;69.45;;;30.50;;
64816;SDS011;53289;45.602;11.904;2023-02-01T06:00:31;67.40;;;31.65;;
64816;SDS011;53289;45.602;11.904;2023-02-01T06:02:57;56.28;;;26.08;;
64816;SDS011;53289;45.602;11.904;2023-02-01T06:05:23;64.88;;;28.77;;
64816;SDS011;53289;45.602;11.904;2023-02-01T06:07:49;63.53;;;29.58;;
64816;SDS011;53289;45.602;11.904;2023-02-01T06:10:16;62.83;;;28.48;;
64816;SDS011;53289;45.602;11.904;2023-02-01T06:12:42;60.63;;;27.33;;
64816;SDS011;53289;45.602;11.904;2023-02-01T06:15:12;60.30;;;27.73;;
64816;SDS011;53289;45.602;11.904;2023-02-01T06:17:41;55.90;;;26.90;;
64816;SDS011;53289;45.602;11.904;2023-02-01T06:20:09;53.63;;;27.13;;
64816;SDS011;53289;45.602;11.904;2023-02-01T06:22:36;56.83;;;25.60;;
64816;SDS011;53289;45.602;11.904;2023-02-01T06:25:03;57.72;;;26.05;;
64816;SDS011;53289;45.602;11.904;2023-02-01T06:27:30;55.60;;;26.40;;
64816;SDS011;53289;45.602;11.904;2023-02-01T06:29:57;58.88;;;26.48;;
64816;SDS011;53289;45.602;11.904;2023-02-01T06:32:23;52.13;;;24.25;;
64816;SDS011;53289;45.602;11.904;2023-02-01T06:34:49;62.28;;;28.48;;
64816;SDS011;53289;45.602;11.904;2023-02-01T06:37:18;55.30;;;25.27;;
64816;SDS011;53289;45.602;11.904;2023-02-01T06:39:44;56.85;;;25.77;;
64816;SDS011;53289;45.602;11.904;2023-02-01T06:42:10;52.67;;;25.05;;
64816;SDS011;53289;45.602;11.904;2023-02-01T06:44:36;50.92;;;24.45;;
64816;SDS011;53289;45.602;11.904;2023-02-01T06:47:04;44.88;;;21.15;;
64816;SDS011;53289;45.602;11.904;2023-02-01T06:49:30;52.92;;;24.25;;
64816;SDS011;53289;45.602;11.904;2023-02-01T06:51:56;55.35;;;25.40;;
64816;SDS011;53289;45.602;11.904;2023-02-01T06:54:25;53.03;;;25.52;;
64816;SDS011;53289;45.602;11.904;2023-02-01T06:56:52;49.33;;;24.73;;
64816;SDS011;53289;45.602;11.904;2023-02-01T06:59:18;57.13;;;26.70;;
64816;SDS011;53289;45.602;11.904;2023-02-01T07:01:44;55.50;;;25.15;;
64816;SDS011;53289;45.602;11.904;2023-02-01T07:04:10;52.75;;;25.70;;
64816;SDS011;53289;45.602;11.904;2023-02-01T07:06:36;48.42;;;22.05;;
64816;SDS011;53289;45.602;11.904;2023-02-01T07:09:03;60.08;;;27.95;;
64816;SDS011;53289;45.602;11.904;2023-02-01T07:11:28;62.75;;;26.63;;
64816;SDS011;53289;45.602;11.904;2023-02-01T07:13:55;80.40;;;33.80;;
64816;SDS011;53289;45.602;11.904;2023-02-01T07:16:21;70.10;;;31.55;;
64816;SDS011;53289;45.602;11.904;2023-02-01T07:18:47;51.88;;;24.58;;
64816;SDS011;53289;45.602;11.904;2023-02-01T07:21:15;55.58;;;26.00;;
64816;SDS011;53289;45.602;11.904;2023-02-01T07:23:41;51.85;;;25.75;;
64816;SDS011;53289;45.602;11.904;2023-02-01T07:26:07;55.83;;;25.08;;
64816;SDS011;53289;45.602;11.904;2023-02-01T07:28:37;50.85;;;24.08;;
64816;SDS011;53289;45.602;11.904;2023-02-01T07:31:06;47.92;;;23.80;;
64816;SDS011;53289;45.602;11.904;2023-02-01T07:36:03;50.92;;;21.83;;
64816;SDS011;53289;45.602;11.904;2023-02-01T07:38:32;50.60;;;23.70;;
64816;SDS011;53289;45.602;11.904;2023-02-01T07:40:59;45.60;;;23.17;;
64816;SDS011;53289;45.602;11.904;2023-02-01T07:43:27;46.35;;;22.40;;
64816;SDS011;53289;45.602;11.904;2023-02-01T07:45:54;52.08;;;23.95;;
64816;SDS011;53289;45.602;11.904;2023-02-01T07:48:21;53.08;;;24.77;;
64816;SDS011;53289;45.602;11.904;2023-02-01T07:50:48;50.22;;;25.98;;
64816;SDS011;53289;45.602;11.904;2023-02-01T07:53:21;55.40;;;27.70;;
64816;SDS011;53289;45.602;11.904;2023-02-01T07:55:47;59.47;;;28.20;;
64816;SDS011;53289;45.602;11.904;2023-02-01T07:58:13;61.15;;;30.00;;
64816;SDS011;53289;45.602;11.904;2023-02-01T08:00:38;60.85;;;30.02;;
64816;SDS011;53289;45.602;11.904;2023-02-01T08:03:22;59.60;;;26.35;;
64816;SDS011;53289;45.602;11.904;2023-02-01T08:05:48;68.53;;;35.63;;
64816;SDS011;53289;45.602;11.904;2023-02-01T08:08:19;44.13;;;22.73;;
64816;SDS011;53289;45.602;11.904;2023-02-01T08:10:45;50.92;;;24.55;;
64816;SDS011;53289;45.602;11.904;2023-02-01T08:13:11;42.53;;;22.05;;
64816;SDS011;53289;45.602;11.904;2023-02-01T08:15:37;57.10;;;26.95;;
64816;SDS011;53289;45.602;11.904;2023-02-01T08:18:02;91.18;;;38.72;;
64816;SDS011;53289;45.602;11.904;2023-02-01T08:20:29;51.53;;;25.15;;
64816;SDS011;53289;45.602;11.904;2023-02-01T08:22:55;65.88;;;35.05;;
64816;SDS011;53289;45.602;11.904;2023-02-01T08:25:21;79.10;;;35.13;;
64816;SDS011;53289;45.602;11.904;2023-02-01T08:27:48;62.45;;;30.08;;
64816;SDS011;53289;45.602;11.904;2023-02-01T08:30:15;59.78;;;29.05;;
64816;SDS011;53289;45.602;11.904;2023-02-01T08:32:41;45.65;;;22.98;;
64816;SDS011;53289;45.602;11.904;2023-02-01T08:35:07;43.75;;;21.60;;
64816;SDS011;53289;45.602;11.904;2023-02-01T08:37:34;54.92;;;23.58;;
64816;SDS011;53289;45.602;11.904;2023-02-01T08:39:59;50.92;;;23.05;;
64816;SDS011;53289;45.602;11.904;2023-02-01T08:42:25;45.13;;;23.48;;
64816;SDS011;53289;45.602;11.904;2023-02-01T08:47:35;45.83;;;21.65;;
64816;SDS011;53289;45.602;11.904;2023-02-01T08:50:01;47.42;;;22.27;;
64816;SDS011;53289;45.602;11.904;2023-02-01T08:52:27;43.80;;;22.70;;
64816;SDS011;53289;45.602;11.904;2023-02-01T08:54:53;45.03;;;23.88;;
64816;SDS011;53289;45.602;11.904;2023-02-01T08:57:18;42.47;;;22.92;;
64816;SDS011;53289;45.602;11.904;2023-02-01T08:59:44;42.63;;;21.40;;
64816;SDS011;53289;45.602;11.904;2023-02-01T09:02:14;46.63;;;23.33;;
64816;SDS011;53289;45.602;11.904;2023-02-01T09:04:41;46.03;;;22.80;;
64816;SDS011;53289;45.602;11.904;2023-02-01T09:07:10;45.80;;;22.92;;
64816;SDS011;53289;45.602;11.904;2023-02-01T09:09:38;40.72;;;23.00;;
64816;SDS011;53289;45.602;11.904;2023-02-01T09:12:04;38.95;;;21.25;;
64816;SDS011;53289;45.602;11.904;2023-02-01T09:14:30;51.15;;;22.55;;
64816;SDS011;53289;45.602;11.904;2023-02-01T09:16:56;41.40;;;21.30;;
64816;SDS011;53289;45.602;11.904;2023-02-01T09:19:22;41.00;;;22.20;;
64816;SDS011;53289;45.602;11.904;2023-02-01T09:21:47;42.05;;;22.65;;
64816;SDS011;53289;45.602;11.904;2023-02-01T09:24:13;41.78;;;23.50;;
64816;SDS011;53289;45.602;11.904;2023-02-01T09:26:39;45.53;;;24.38;;
64816;SDS011;53289;45.602;11.904;2023-02-01T09:29:05;43.63;;;23.02;;
64816;SDS011;53289;45.602;11.904;2023-02-01T09:31:37;48.40;;;24.48;;
64816;SDS011;53289;45.602;11.904;2023-02-01T09:35:05;53.30;;;27.80;;
64816;SDS011;53289;45.602;11.904;2023-02-01T09:37:31;54.05;;;26.63;;
64816;SDS011;53289;45.602;11.904;2023-02-01T09:39:58;59.13;;;27.77;;
64816;SDS011;53289;45.602;11.904;2023-02-01T09:42:39;64.38;;;31.50;;
64816;SDS011;53289;45.602;11.904;2023-02-01T09:48:38;62.78;;;33.30;;
64816;SDS011;53289;45.602;11.904;2023-02-01T09:51:12;61.88;;;29.80;;
64816;SDS011;53289;45.602;11.904;2023-02-01T09:53:41;57.40;;;29.40;;
64816;SDS011;53289;45.602;11.904;2023-02-01T09:56:12;54.85;;;28.70;;
64816;SDS011;53289;45.602;11.904;2023-02-01T09:58:56;61.15;;;30.38;;
64816;SDS011;53289;45.602;11.904;2023-02-01T10:01:27;60.35;;;31.55;;
64816;SDS011;53289;45.602;11.904;2023-02-01T10:03:59;60.85;;;30.30;;
64816;SDS011;53289;45.602;11.904;2023-02-01T10:20:45;60.83;;;31.08;;
64816;SDS011;53289;45.602;11.904;2023-02-01T10:23:52;66.13;;;32.70;;
64816;SDS011;53289;45.602;11.904;2023-02-01T10:26:45;64.75;;;31.65;;
64816;SDS011;53289;45.602;11.904;2023-02-01T10:29:20;65.80;;;32.95;;
64816;SDS011;53289;45.602;11.904;2023-02-01T10:31:50;63.47;;;33.38;;
64816;SDS011;53289;45.602;11.904;2023-02-01T10:34:25;65.40;;;32.28;;
64816;SDS011;53289;45.602;11.904;2023-02-01T10:36:54;62.80;;;31.73;;
64816;SDS011;53289;45.602;11.904;2023-02-01T10:39:22;66.30;;;32.75;;
64816;SDS011;53289;45.602;11.904;2023-02-01T10:41:49;64.57;;;31.80;;
64816;SDS011;53289;45.602;11.904;2023-02-01T10:44:16;64.07;;;33.63;;
64816;SDS011;53289;45.602;11.904;2023-02-01T10:46:45;64.07;;;33.08;;
64816;SDS011;53289;45.602;11.904;2023-02-01T10:49:13;63.45;;;32.80;;
64816;SDS011;53289;45.602;11.904;2023-02-01T10:51:54;62.63;;;31.55;;
64816;SDS011;53289;45.602;11.904;2023-02-01T10:54:37;63.97;;;32.35;;
64816;SDS011;53289;45.602;11.904;2023-02-01T10:57:37;64.78;;;32.42;;
64816;SDS011;53289;45.602;11.904;2023-02-01T10:59:57;63.40;;;30.65;;
64816;SDS011;53289;45.602;11.904;2023-02-01T11:02:32;52.60;;;27.08;;
64816;SDS011;53289;45.602;11.904;2023-02-01T11:05:00;61.50;;;29.20;;
64816;SDS011;53289;45.602;11.904;2023-02-01T11:07:34;59.97;;;30.63;;
64816;SDS011;53289;45.602;11.904;2023-02-01T11:10:01;58.03;;;30.23;;
64816;SDS011;53289;45.602;11.904;2023-02-01T11:12:31;59.65;;;29.45;;
64816;SDS011;53289;45.602;11.904;2023-02-01T11:17:48;59.35;;;30.35;;
64816;SDS011;53289;45.602;11.904;2023-02-01T11:20:39;55.70;;;28.83;;
64816;SDS011;53289;45.602;11.904;2023-02-01T11:23:11;54.08;;;28.08;;
64816;SDS011;53289;45.602;11.904;2023-02-01T11:25:55;61.20;;;32.03;;
64816;SDS011;53289;45.602;11.904;2023-02-01T11:28:27;65.43;;;34.03;;
64816;SDS011;53289;45.602;11.904;2023-02-01T11:30:57;64.78;;;32.47;;
64816;SDS011;53289;45.602;11.904;2023-02-01T11:33:30;54.28;;;29.58;;
64816;SDS011;53289;45.602;11.904;2023-02-01T11:36:21;57.93;;;31.53;;
64816;SDS011;53289;45.602;11.904;2023-02-01T11:41:40;68.70;;;34.58;;
64816;SDS011;53289;45.602;11.904;2023-02-01T11:44:35;57.05;;;29.55;;
64816;SDS011;53289;45.602;11.904;2023-02-01T11:47:18;57.58;;;30.20;;
64816;SDS011;53289;45.602;11.904;2023-02-01T11:49:47;53.30;;;28.70;;
64816;SDS011;53289;45.602;11.904;2023-02-01T11:52:28;59.83;;;30.85;;
64816;SDS011;53289;45.602;11.904;2023-02-01T11:58:26;62.47;;;33.33;;
64816;SDS011;53289;45.602;11.904;2023-02-01T12:01:32;70.35;;;35.35;;
64816;SDS011;53289;45.602;11.904;2023-02-01T12:06:52;65.65;;;32.95;;
64816;SDS011;53289;45.602;11.904;2023-02-01T12:09:27;61.28;;;31.58;;
64816;SDS011;53289;45.602;11.904;2023-02-01T12:22:45;74.90;;;37.25;;
64816;SDS011;53289;45.602;11.904;2023-02-01T12:28:59;65.30;;;33.65;;
64816;SDS011;53289;45.602;11.904;2023-02-01T12:42:42;58.63;;;32.08;;
64816;SDS011;53289;45.602;11.904;2023-02-01T12:45:49;58.60;;;32.15;;
64816;SDS011;53289;45.602;11.904;2023-02-01T12:51:12;63.95;;;33.72;;
64816;SDS011;53289;45.602;11.904;2023-02-01T12:53:50;64.70;;;34.28;;
64816;SDS011;53289;45.602;11.904;2023-02-01T12:56:26;65.95;;;33.35;;
64816;SDS011;53289;45.602;11.904;2023-02-01T12:58:58;58.00;;;30.15;;
64816;SDS011;53289;45.602;11.904;2023-02-01T13:04:13;68.78;;;37.25;;
64816;SDS011;53289;45.602;11.904;2023-02-01T13:06:43;64.75;;;34.58;;
64816;SDS011;53289;45.602;11.904;2023-02-01T13:11:48;64.50;;;35.80;;
64816;SDS011;53289;45.602;11.904;2023-02-01T13:14:27;64.60;;;35.42;;
64816;SDS011;53289;45.602;11.904;2023-02-01T13:17:09;62.90;;;32.63;;
64816;SDS011;53289;45.602;11.904;2023-02-01T13:22:09;59.30;;;33.20;;
64816;SDS011;53289;45.602;11.904;2023-02-01T13:24:43;55.22;;;31.08;;
64816;SDS011;53289;45.602;11.904;2023-02-01T13:27:13;68.93;;;39.28;;
64816;SDS011;53289;45.602;11.904;2023-02-01T13:29:49;66.35;;;36.83;;
64816;SDS011;53289;45.602;11.904;2023-02-01T13:38:04;62.53;;;33.22;;
64816;SDS011;53289;45.602;11.904;2023-02-01T13:43:32;59.30;;;32.42;;
64816;SDS011;53289;45.602;11.904;2023-02-01T13:46:05;64.05;;;34.47;;
64816;SDS011;53289;45.602;11.904;2023-02-01T13:48:41;61.35;;;33.78;;
64816;SDS011;53289;45.602;11.904;2023-02-01T13:51:11;58.88;;;32.22;;
64816;SDS011;53289;45.602;11.904;2023-02-01T13:53:43;58.40;;;32.97;;
64816;SDS011;53289;45.602;11.904;2023-02-01T13:56:13;59.80;;;33.50;;
64816;SDS011;53289;45.602;11.904;2023-02-01T13:58:43;68.57;;;35.45;;
64816;SDS011;53289;45.602;11.904;2023-02-01T14:03:47;66.07;;;34.78;;
64816;SDS011;53289;45.602;11.904;2023-02-01T14:06:17;73.20;;;35.65;;
64816;SDS011;53289;45.602;11.904;2023-02-01T14:11:40;67.32;;;34.15;;
64816;SDS011;53289;45.602;11.904;2023-02-01T14:14:51;69.07;;;35.55;;
64816;SDS011;53289;45.602;11.904;2023-02-01T14:19:25;58.22;;;31.25;;
64816;SDS011;53289;45.602;11.904;2023-02-01T14:21:59;51.03;;;27.35;;
64816;SDS011;53289;45.602;11.904;2023-02-01T14:24:49;59.33;;;31.45;;
64816;SDS011;53289;45.602;11.904;2023-02-01T14:29:53;51.38;;;27.17;;
64816;SDS011;53289;45.602;11.904;2023-02-01T14:32:25;64.60;;;33.60;;
64816;SDS011;53289;45.602;11.904;2023-02-01T14:34:53;60.60;;;32.97;;
64816;SDS011;53289;45.602;11.904;2023-02-01T14:47:48;60.22;;;32.42;;
64816;SDS011;53289;45.602;11.904;2023-02-01T14:53:01;59.85;;;32.80;;
64816;SDS011;53289;45.602;11.904;2023-02-01T14:58:05;72.35;;;35.85;;
64816;SDS011;53289;45.602;11.904;2023-02-01T15:00:51;54.70;;;29.75;;
64816;SDS011;53289;45.602;11.904;2023-02-01T15:06:20;61.25;;;33.58;;
64816;SDS011;53289;45.602;11.904;2023-02-01T15:08:48;64.55;;;32.42;;
64816;SDS011;53289;45.602;11.904;2023-02-01T15:11:14;60.50;;;30.25;;
64816;SDS011;53289;45.602;11.904;2023-02-01T15:13:47;57.40;;;30.75;;
64816;SDS011;53289;45.602;11.904;2023-02-01T15:16:15;55.97;;;30.40;;
64816;SDS011;53289;45.602;11.904;2023-02-01T15:18:42;57.10;;;29.98;;
64816;SDS011;53289;45.602;11.904;2023-02-01T15:21:15;73.50;;;34.50;;
64816;SDS011;53289;45.602;11.904;2023-02-01T15:23:43;69.65;;;33.55;;
64816;SDS011;53289;45.602;11.904;2023-02-01T15:26:11;63.97;;;32.28;;
64816;SDS011;53289;45.602;11.904;2023-02-01T15:28:53;57.67;;;30.55;;
64816;SDS011;53289;45.602;11.904;2023-02-01T15:31:44;63.38;;;31.73;;
64816;SDS011;53289;45.602;11.904;2023-02-01T15:34:12;61.60;;;32.60;;
64816;SDS011;53289;45.602;11.904;2023-02-01T15:36:38;68.57;;;34.65;;
64816;SDS011;53289;45.602;11.904;2023-02-01T15:39:19;68.90;;;35.38;;
64816;SDS011;53289;45.602;11.904;2023-02-01T15:42:09;65.83;;;33.73;;
64816;SDS011;53289;45.602;11.904;2023-02-01T15:44:42;65.00;;;33.28;;
64816;SDS011;53289;45.602;11.904;2023-02-01T15:49:55;71.32;;;33.55;;
64816;SDS011;53289;45.602;11.904;2023-02-01T15:54:57;53.00;;;27.42;;
64816;SDS011;53289;45.602;11.904;2023-02-01T15:57:29;63.78;;;32.10;;
64816;SDS011;53289;45.602;11.904;2023-02-01T16:00:06;72.78;;;34.88;;
64816;SDS011;53289;45.602;11.904;2023-02-01T16:02:57;62.28;;;29.05;;
64816;SDS011;53289;45.602;11.904;2023-02-01T16:05:34;56.15;;;29.15;;
64816;SDS011;53289;45.602;11.904;2023-02-01T16:10:30;59.20;;;30.25;;
64816;SDS011;53289;45.602;11.904;2023-02-01T16:12:56;51.33;;;27.23;;
64816;SDS011;53289;45.602;11.904;2023-02-01T16:15:27;52.80;;;27.30;;
64816;SDS011;53289;45.602;11.904;2023-02-01T16:17:55;54.95;;;28.38;;
64816;SDS011;53289;45.602;11.904;2023-02-01T16:20:21;59.97;;;29.35;;
64816;SDS011;53289;45.602;11.904;2023-02-01T16:22:47;54.20;;;28.52;;
64816;SDS011;53289;45.602;11.904;2023-02-01T16:25:13;52.63;;;27.05;;
64816;SDS011;53289;45.602;11.904;2023-02-01T16:27:39;59.30;;;28.90;;
64816;SDS011;53289;45.602;11.904;2023-02-01T16:30:05;63.83;;;30.17;;
64816;SDS011;53289;45.602;11.904;2023-02-01T16:32:35;56.17;;;28.48;;
64816;SDS011;53289;45.602;11.904;2023-02-01T16:35:05;55.05;;;28.85;;
64816;SDS011;53289;45.602;11.904;2023-02-01T16:37:50;64.78;;;30.67;;
64816;SDS011;53289;45.602;11.904;2023-02-01T16:40:17;59.35;;;30.33;;
64816;SDS011;53289;45.602;11.904;2023-02-01T16:42:45;62.47;;;29.40;;
64816;SDS011;53289;45.602;11.904;2023-02-01T16:45:13;59.97;;;28.30;;
64816;SDS011;53289;45.602;11.904;2023-02-01T16:47:39;62.88;;;31.20;;
64816;SDS011;53289;45.602;11.904;2023-02-01T16:50:15;98.65;;;45.63;;
64816;SDS011;53289;45.602;11.904;2023-02-01T16:52:42;61.92;;;32.28;;
64816;SDS011;53289;45.602;11.904;2023-02-01T16:55:10;73.75;;;35.75;;
64816;SDS011;53289;45.602;11.904;2023-02-01T16:57:38;51.65;;;27.63;;
64816;SDS011;53289;45.602;11.904;2023-02-01T17:00:04;81.63;;;34.30;;
64816;SDS011;53289;45.602;11.904;2023-02-01T17:02:31;66.40;;;32.20;;